Time;durP1;ratioP1;P1;durP2;ratioP2;P2;SDS_P1;SDS_P2;PMS_P1;PMS_P2;Temp;Humidity;BMP_temperature;BMP_pressure;BME280_temperature;BME280_humidity;BME280_pressure;Samples;Min_cycle;Max_cycle;Signal;HPM_P1;HPM_P2
2022/12/22 03:27:10;;;;;;;54.50;41.30;;;8.30;99.90;;;;;;4994771;28;20511;-78
2022/12/22 03:29:38;;;;;;;51.13;41.30;;;8.30;99.90;;;;;;4996207;28;20456;-79
2022/12/22 03:32:06;;;;;;;54.50;42.10;;;8.30;99.90;;;;;;4994729;28;20547;-80
2022/12/22 03:34:36;;;;;;;56.47;41.53;;;8.20;99.90;;;;;;4994291;28;20504;-79
2022/12/22 03:37:04;;;;;;;59.13;42.03;;;8.30;99.90;;;;;;4995503;28;20452;-80
2022/12/22 03:39:32;;;;;;;58.83;42.60;;;8.30;99.90;;;;;;4994397;28;20950;-78
2022/12/22 03:47:31;;;;;;;56.67;43.90;;;8.30;99.90;;;;;;4999080;28;20421;-80
2022/12/22 03:50:01;;;;;;;55.60;41.23;;;8.30;99.90;;;;;;4999933;28;20443;-79
2022/12/22 03:52:29;;;;;;;60.20;42.40;;;8.30;99.90;;;;;;4998965;28;21012;-79
2022/12/22 03:54:57;;;;;;;54.83;40.60;;;8.40;99.90;;;;;;4998081;28;20488;-79
2022/12/22 03:57:25;;;;;;;57.47;40.90;;;8.40;99.90;;;;;;4998920;28;20456;-80
2022/12/22 03:59:53;;;;;;;59.03;43.00;;;8.30;99.90;;;;;;5000224;28;20837;-80
2022/12/22 04:02:21;;;;;;;59.20;41.33;;;8.40;99.90;;;;;;4999422;28;20445;-80
2022/12/22 04:04:50;;;;;;;54.83;42.03;;;8.40;99.90;;;;;;5000198;28;20527;-80
2022/12/22 04:07:19;;;;;;;55.73;41.50;;;8.40;99.90;;;;;;5001676;28;20459;-80
2022/12/22 04:15:15;;;;;;;64.03;47.00;;;8.40;99.90;;;;;;5000709;28;20486;-80
2022/12/22 04:17:43;;;;;;;58.80;42.77;;;8.40;99.90;;;;;;5000768;28;20449;-80
2022/12/22 04:20:11;;;;;;;66.33;44.70;;;8.40;99.90;;;;;;4998987;28;20456;-80
2022/12/22 04:22:41;;;;;;;62.93;45.27;;;8.40;99.90;;;;;;4998770;28;20472;-80
2022/12/22 04:25:10;;;;;;;67.57;50.23;;;8.40;99.90;;;;;;4998790;28;20475;-80
2022/12/22 04:27:38;;;;;;;69.17;49.50;;;8.40;99.90;;;;;;5000340;28;20449;-79
2022/12/22 04:30:07;;;;;;;71.60;48.57;;;8.40;99.90;;;;;;4998637;28;20463;-79
2022/12/22 04:32:36;;;;;;;62.23;41.23;;;8.40;99.90;;;;;;5007969;28;20432;-78
2022/12/22 04:35:04;;;;;;;65.00;42.03;;;8.40;99.90;;;;;;5021898;28;20488;-79
2022/12/22 04:37:33;;;;;;;59.23;42.47;;;8.40;99.90;;;;;;5020886;28;20447;-79
2022/12/22 04:40:03;;;;;;;64.03;41.90;;;8.40;99.90;;;;;;5010993;28;20451;-79
2022/12/22 04:42:31;;;;;;;57.47;42.07;;;8.40;99.90;;;;;;4997564;28;20503;-78
2022/12/22 04:44:59;;;;;;;60.07;42.33;;;8.50;99.90;;;;;;4996208;28;20469;-80
2022/12/22 04:47:27;;;;;;;63.10;45.30;;;8.50;99.90;;;;;;4998761;28;20444;-78
2022/12/22 04:49:55;;;;;;;55.70;41.97;;;8.40;99.90;;;;;;4998714;28;20490;-79
2022/12/22 04:52:23;;;;;;;55.20;41.27;;;8.30;99.90;;;;;;4998477;28;20446;-79
2022/12/22 04:54:51;;;;;;;64.57;45.00;;;8.40;99.90;;;;;;4996707;28;20484;-79
2022/12/22 04:57:21;;;;;;;66.13;43.27;;;8.40;99.90;;;;;;4996076;28;20510;-79
2022/12/22 04:59:49;;;;;;;58.93;41.50;;;8.40;99.90;;;;;;4996434;28;20475;-78
2022/12/22 05:02:17;;;;;;;59.10;42.00;;;8.40;99.90;;;;;;4998358;28;20530;-79
2022/12/22 05:04:45;;;;;;;60.63;41.00;;;8.40;99.90;;;;;;4998746;28;20471;-77
2022/12/22 05:07:14;;;;;;;54.80;40.10;;;8.40;99.90;;;;;;4998165;28;20441;-77
2022/12/22 05:09:42;;;;;;;43.97;32.07;;;8.40;99.90;;;;;;4998282;28;20966;-79
2022/12/22 05:14:53;;;;;;;53.77;40.70;;;8.40;99.90;;;;;;4995724;28;20563;-77
2022/12/22 05:17:22;;;;;;;51.40;37.90;;;8.40;99.90;;;;;;4996564;28;20452;-79
2022/12/22 05:19:50;;;;;;;48.47;37.30;;;8.40;99.90;;;;;;4998026;28;20464;-79
2022/12/22 05:22:18;;;;;;;67.57;43.47;;;8.40;99.90;;;;;;4996778;28;21024;-77
2022/12/22 05:24:46;;;;;;;57.97;40.87;;;8.40;99.90;;;;;;4996511;28;20479;-79
2022/12/22 05:27:14;;;;;;;60.50;41.03;;;8.40;99.90;;;;;;4996192;28;20463;-78
2022/12/22 05:29:42;;;;;;;55.70;38.70;;;8.40;99.90;;;;;;4998080;28;20455;-77
2022/12/22 05:32:12;;;;;;;57.60;39.83;;;8.40;99.90;;;;;;4996597;28;20439;-79
2022/12/22 05:34:40;;;;;;;52.87;38.93;;;8.40;99.90;;;;;;4993575;28;20551;-77
2022/12/22 05:37:08;;;;;;;53.10;39.20;;;8.30;99.90;;;;;;4995940;28;20551;-78
2022/12/22 05:39:36;;;;;;;63.03;45.03;;;8.40;99.90;;;;;;4997101;28;20455;-77
2022/12/22 05:42:04;;;;;;;60.70;40.67;;;8.40;99.90;;;;;;4996221;28;20459;-78
2022/12/22 05:44:32;;;;;;;57.33;41.27;;;8.40;99.90;;;;;;4997731;28;20456;-79
2022/12/22 05:47:00;;;;;;;57.33;40.17;;;8.40;99.90;;;;;;4996185;28;20448;-77
2022/12/22 05:49:30;;;;;;;59.73;41.40;;;8.40;99.90;;;;;;4996134;28;20446;-78
2022/12/22 05:51:58;;;;;;;54.53;40.50;;;8.40;99.90;;;;;;4996321;28;20955;-80
2022/12/22 05:54:26;;;;;;;58.13;44.07;;;8.40;99.90;;;;;;4997618;28;20578;-80
2022/12/22 05:56:54;;;;;;;56.50;41.20;;;8.40;99.90;;;;;;4996338;28;20981;-79
2022/12/22 05:59:22;;;;;;;59.80;42.10;;;8.40;99.90;;;;;;4996313;28;20539;-79
2022/12/22 06:01:51;;;;;;;63.53;43.57;;;8.40;99.90;;;;;;4996264;28;20455;-79
2022/12/22 06:04:19;;;;;;;58.50;43.37;;;8.40;99.90;;;;;;4996917;28;20483;-80
2022/12/22 06:06:49;;;;;;;60.40;42.30;;;8.40;99.90;;;;;;4997048;28;20449;-79
2022/12/22 06:09:17;;;;;;;60.17;41.93;;;8.40;99.90;;;;;;4996819;28;20462;-79
2022/12/22 06:11:45;;;;;;;60.10;43.03;;;8.40;99.90;;;;;;4997097;28;20439;-80
2022/12/22 06:14:13;;;;;;;68.33;44.70;;;8.40;99.90;;;;;;4996655;28;20957;-80
2022/12/22 06:16:41;;;;;;;62.77;43.37;;;8.40;99.90;;;;;;4996954;28;20453;-80
2022/12/22 06:19:09;;;;;;;62.50;44.57;;;8.40;99.90;;;;;;4996296;28;20449;-78
2022/12/22 06:21:37;;;;;;;56.13;40.80;;;8.40;99.90;;;;;;4995003;28;20640;-79
2022/12/22 06:24:07;;;;;;;61.00;43.50;;;8.40;99.90;;;;;;4996061;28;20455;-78
2022/12/22 06:26:36;;;;;;;63.37;42.77;;;8.40;99.90;;;;;;4993740;28;20462;-80
2022/12/22 06:29:04;;;;;;;58.60;41.27;;;8.40;99.90;;;;;;4996769;28;20805;-79
2022/12/22 06:31:32;;;;;;;57.43;42.07;;;8.40;99.90;;;;;;4997841;28;20534;-79
2022/12/22 06:34:00;;;;;;;58.33;42.00;;;8.30;99.90;;;;;;4996046;28;20861;-79
2022/12/22 06:36:28;;;;;;;62.03;41.77;;;8.40;99.90;;;;;;4997558;28;20819;-79
2022/12/22 06:38:56;;;;;;;57.30;41.13;;;8.40;99.90;;;;;;4996275;28;20472;-79
2022/12/22 06:44:12;;;;;;;60.63;42.07;;;8.40;99.90;;;;;;5008889;28;20435;-78
2022/12/22 06:46:40;;;;;;;58.10;41.60;;;8.40;99.90;;;;;;5006937;28;20516;-78
2022/12/22 06:49:08;;;;;;;57.30;42.07;;;8.40;99.90;;;;;;5007961;28;20452;-78
2022/12/22 06:51:36;;;;;;;62.13;42.10;;;8.40;99.90;;;;;;5008635;28;20826;-79
2022/12/22 06:54:05;;;;;;;64.40;43.43;;;8.40;99.90;;;;;;5008268;28;20528;-79
2022/12/22 06:56:34;;;;;;;60.60;42.90;;;8.40;99.90;;;;;;5008233;28;20469;-78
2022/12/22 06:59:03;;;;;;;63.70;43.20;;;8.40;99.90;;;;;;5008152;28;20475;-78
2022/12/22 07:01:31;;;;;;;62.83;43.77;;;8.40;99.90;;;;;;5011932;28;20448;-80
2022/12/22 07:04:00;;;;;;;62.97;42.83;;;8.40;99.90;;;;;;5011467;28;20437;-80
2022/12/22 07:06:28;;;;;;;65.10;43.90;;;8.50;99.90;;;;;;5011685;28;20479;-80
2022/12/22 07:08:56;;;;;;;63.70;44.20;;;8.40;99.90;;;;;;5013095;28;20503;-81
2022/12/22 07:11:24;;;;;;;63.50;43.17;;;8.40;99.90;;;;;;5009570;28;20444;-79
2022/12/22 07:13:54;;;;;;;73.97;46.77;;;8.40;99.90;;;;;;5008880;28;20976;-79
2022/12/22 07:16:22;;;;;;;64.20;44.57;;;8.50;99.90;;;;;;5007490;28;20468;-79
2022/12/22 07:18:50;;;;;;;81.27;46.47;;;8.40;99.90;;;;;;5009279;28;20476;-79
2022/12/22 07:21:18;;;;;;;79.27;45.80;;;8.50;99.90;;;;;;5009146;28;20456;-79
2022/12/22 07:23:47;;;;;;;72.53;46.80;;;8.50;99.90;;;;;;5008390;28;20492;-79
2022/12/22 07:26:15;;;;;;;67.37;44.30;;;8.40;99.90;;;;;;5009914;28;20483;-79
2022/12/22 07:28:43;;;;;;;67.50;44.37;;;8.50;99.90;;;;;;5009399;28;20464;-79
2022/12/22 07:31:15;;;;;;;70.73;45.13;;;8.50;99.90;;;;;;5008609;28;20453;-78
2022/12/22 07:33:44;;;;;;;75.17;46.27;;;8.40;99.90;;;;;;5008742;28;20463;-79
2022/12/22 07:36:14;;;;;;;80.90;46.90;;;8.50;99.90;;;;;;5009970;28;20552;-80
2022/12/22 07:38:45;;;;;;;73.23;45.13;;;8.40;99.90;;;;;;5011157;28;20455;-79
2022/12/22 07:44:02;;;;;;;81.77;48.30;;;8.40;99.90;;;;;;5010319;28;20436;-78
2022/12/22 07:46:35;;;;;;;80.17;47.97;;;8.50;99.90;;;;;;5008825;28;20491;-79
2022/12/22 07:51:50;;;;;;;82.33;49.50;;;8.40;99.90;;;;;;5009759;28;20509;-79
2022/12/22 07:54:18;;;;;;;87.77;50.10;;;8.50;99.90;;;;;;5008692;28;20515;-78
2022/12/22 07:56:47;;;;;;;85.33;48.53;;;8.40;99.90;;;;;;5010406;28;20528;-79
2022/12/22 07:59:16;;;;;;;88.07;48.10;;;8.40;99.90;;;;;;5009962;28;20470;-80
2022/12/22 08:01:46;;;;;;;86.80;48.47;;;8.50;99.90;;;;;;5010210;28;20504;-80
2022/12/22 08:04:15;;;;;;;83.03;48.90;;;8.50;99.90;;;;;;5008219;28;20538;-78
2022/12/22 08:06:43;;;;;;;84.13;48.17;;;8.50;99.90;;;;;;5008463;28;20460;-79
2022/12/22 08:09:15;;;;;;;88.10;49.80;;;8.50;99.90;;;;;;5011430;28;20516;-79
2022/12/22 08:11:43;;;;;;;84.07;46.60;;;8.50;99.90;;;;;;5009729;28;20457;-79
2022/12/22 08:14:11;;;;;;;85.83;49.07;;;8.50;99.90;;;;;;5008891;28;20449;-79
2022/12/22 08:16:40;;;;;;;94.53;51.50;;;8.50;99.90;;;;;;5008050;28;20480;-79
2022/12/22 08:19:09;;;;;;;87.53;48.63;;;8.50;99.90;;;;;;5007770;28;20934;-78
2022/12/22 08:21:38;;;;;;;82.73;48.73;;;8.50;99.90;;;;;;5005675;28;20460;-79
2022/12/22 08:24:07;;;;;;;86.67;47.37;;;8.50;99.90;;;;;;5006808;28;20441;-79
2022/12/22 08:26:38;;;;;;;86.90;48.60;;;8.50;99.90;;;;;;5005328;28;20451;-78
2022/12/22 08:29:11;;;;;;;86.07;49.17;;;8.50;99.90;;;;;;5005922;28;20495;-78
2022/12/22 08:31:39;;;;;;;93.70;51.27;;;8.50;99.90;;;;;;5005693;28;20448;-78
2022/12/22 08:34:12;;;;;;;92.87;49.50;;;8.50;99.90;;;;;;5009448;28;20453;-78
2022/12/22 08:36:43;;;;;;;93.97;52.83;;;8.50;99.90;;;;;;5011089;28;20989;-79
2022/12/22 08:39:13;;;;;;;104.43;53.87;;;8.50;99.90;;;;;;5011830;28;20421;-79
2022/12/22 08:41:50;;;;;;;104.17;54.13;;;8.50;99.90;;;;;;5010235;28;20445;-78
2022/12/22 08:44:20;;;;;;;95.83;50.60;;;8.50;99.90;;;;;;5009666;28;20503;-78
2022/12/22 08:46:49;;;;;;;105.53;52.10;;;8.60;99.90;;;;;;5010468;28;20441;-79
2022/12/22 08:49:20;;;;;;;101.17;52.80;;;8.70;99.90;;;;;;5009775;28;20435;-78
2022/12/22 08:51:48;;;;;;;108.50;53.57;;;8.60;99.90;;;;;;5011523;28;20516;-78
2022/12/22 08:54:17;;;;;;;80.93;41.33;;;8.50;99.90;;;;;;5008695;28;20475;-78
2022/12/22 08:56:46;;;;;;;106.83;54.13;;;8.60;99.90;;;;;;5009607;28;20478;-79
2022/12/22 08:59:14;;;;;;;96.93;51.77;;;8.60;99.90;;;;;;5010999;28;20451;-79
2022/12/22 09:01:46;;;;;;;94.53;50.40;;;8.60;99.90;;;;;;5018039;28;20467;-79
2022/12/22 09:04:16;;;;;;;100.03;49.90;;;8.60;99.90;;;;;;5003303;28;20486;-80
2022/12/22 09:06:46;;;;;;;93.60;50.20;;;8.70;99.90;;;;;;4998276;28;20455;-79
2022/12/22 09:09:15;;;;;;;92.10;48.10;;;8.70;99.90;;;;;;4999649;28;20444;-79
2022/12/22 09:11:44;;;;;;;97.67;49.50;;;8.70;99.90;;;;;;4998781;28;20859;-79
2022/12/22 09:14:13;;;;;;;87.30;48.10;;;8.70;99.90;;;;;;4997787;28;20448;-79
2022/12/22 09:16:41;;;;;;;92.53;47.37;;;8.80;99.90;;;;;;4997844;28;20495;-79
2022/12/22 09:19:09;;;;;;;81.40;46.03;;;8.80;99.90;;;;;;4997866;28;20456;-78
2022/12/22 09:21:40;;;;;;;82.87;46.83;;;8.80;99.90;;;;;;4997559;28;20456;-79
2022/12/22 09:24:10;;;;;;;77.97;43.37;;;8.80;99.90;;;;;;4998261;28;20451;-79
2022/12/22 09:26:38;;;;;;;82.20;44.27;;;8.80;99.90;;;;;;4998546;28;20536;-79
2022/12/22 09:29:06;;;;;;;92.30;46.80;;;8.80;99.90;;;;;;4998598;28;20480;-79
2022/12/22 09:31:35;;;;;;;87.00;48.57;;;8.80;99.90;;;;;;4997413;28;20449;-79
2022/12/22 09:34:03;;;;;;;84.67;48.00;;;8.90;99.90;;;;;;4997187;28;20445;-79
2022/12/22 09:36:32;;;;;;;83.90;44.07;;;8.90;99.90;;;;;;4997092;28;20484;-80
2022/12/22 09:39:05;;;;;;;85.20;44.60;;;8.90;99.90;;;;;;4998200;28;20453;-80
2022/12/22 09:41:41;;;;;;;88.47;43.10;;;8.90;99.90;;;;;;4999852;28;20623;-80
2022/12/22 09:44:15;;;;;;;80.40;44.07;;;8.90;99.90;;;;;;4996863;28;20437;-80
2022/12/22 09:46:43;;;;;;;87.07;45.90;;;9.00;99.90;;;;;;4997218;28;20453;-80
2022/12/22 09:49:14;;;;;;;81.33;44.03;;;8.90;99.90;;;;;;4997678;28;20448;-80
2022/12/22 09:51:46;;;;;;;85.50;47.80;;;9.00;99.90;;;;;;4997182;28;20857;-80
2022/12/22 09:54:15;;;;;;;80.90;44.00;;;9.00;99.90;;;;;;4999353;28;20517;-80
2022/12/22 09:56:44;;;;;;;76.33;43.47;;;9.00;99.90;;;;;;4999057;28;20482;-80
2022/12/22 09:59:14;;;;;;;76.13;44.43;;;9.00;99.90;;;;;;5006967;28;20440;-79
2022/12/22 10:02:00;;;;;;;74.80;41.97;;;9.10;99.90;;;;;;5013562;28;20452;-80
2022/12/22 10:04:51;;;;;;;76.93;42.80;;;9.00;99.90;;;;;;5013523;28;20468;-79
2022/12/22 10:07:28;;;;;;;69.80;41.07;;;9.00;99.90;;;;;;5012915;28;20449;-79
2022/12/22 10:09:56;;;;;;;72.57;42.57;;;9.00;99.90;;;;;;5010787;28;20954;-79
2022/12/22 10:12:26;;;;;;;74.27;41.27;;;9.00;99.90;;;;;;5012520;28;20441;-79
2022/12/22 10:14:55;;;;;;;68.20;40.67;;;9.00;99.90;;;;;;5011645;28;20484;-79
2022/12/22 10:17:26;;;;;;;68.50;39.77;;;9.00;99.90;;;;;;5010578;28;20553;-79
2022/12/22 10:20:08;;;;;;;57.23;36.90;;;9.00;99.90;;;;;;5010067;28;20445;-79
2022/12/22 10:22:46;;;;;;;59.07;37.27;;;9.00;99.90;;;;;;5011356;28;20436;-79
2022/12/22 10:25:31;;;;;;;60.27;37.57;;;9.00;99.90;;;;;;5010558;28;20475;-79
2022/12/22 10:28:24;;;;;;;58.50;36.97;;;9.00;99.90;;;;;;5011357;28;20966;-78
2022/12/22 10:31:14;;;;;;;55.33;34.60;;;9.00;99.90;;;;;;5009306;28;20459;-78
2022/12/22 10:33:45;;;;;;;56.67;36.30;;;9.10;99.90;;;;;;5008965;28;21000;-79
2022/12/22 10:36:19;;;;;;;51.60;33.80;;;9.00;99.90;;;;;;5007650;28;20587;-79
2022/12/22 10:39:00;;;;;;;48.80;32.30;;;9.10;99.90;;;;;;5009085;28;20460;-78
2022/12/22 10:41:31;;;;;;;47.67;32.60;;;9.10;99.90;;;;;;5007644;28;20441;-78
2022/12/22 10:44:04;;;;;;;46.53;30.80;;;9.10;99.90;;;;;;5007317;28;20480;-78
2022/12/22 10:46:37;;;;;;;48.27;32.87;;;9.10;99.90;;;;;;5007801;28;20448;-78
2022/12/22 10:49:12;;;;;;;47.50;31.80;;;9.00;99.90;;;;;;5008194;28;20506;-78
2022/12/22 10:51:41;;;;;;;46.53;29.63;;;9.00;99.90;;;;;;5008016;28;20910;-78
2022/12/22 10:54:09;;;;;;;48.83;33.10;;;9.10;99.90;;;;;;5007295;28;20441;-79
2022/12/22 10:56:38;;;;;;;48.00;31.97;;;9.00;99.90;;;;;;5007244;28;20448;-78
2022/12/22 10:59:19;;;;;;;46.57;31.10;;;9.00;99.90;;;;;;5008162;28;20447;-79
2022/12/22 11:01:47;;;;;;;44.20;30.00;;;9.00;99.90;;;;;;5009429;28;20452;-79
2022/12/22 11:04:21;;;;;;;47.30;32.10;;;9.00;99.90;;;;;;5005901;28;20449;-79
2022/12/22 11:06:50;;;;;;;47.90;32.07;;;9.20;99.90;;;;;;5005910;28;20437;-78
2022/12/22 11:09:18;;;;;;;44.60;29.67;;;9.00;99.90;;;;;;5004880;28;20471;-78
2022/12/22 11:12:13;;;;;;;44.50;29.20;;;9.00;99.90;;;;;;5005054;28;20440;-78
2022/12/22 11:14:52;;;;;;;45.23;29.70;;;8.90;99.90;;;;;;5006787;28;20457;-78
2022/12/22 11:17:30;;;;;;;40.43;27.30;;;8.90;99.90;;;;;;5004696;28;20464;-79
2022/12/22 11:20:16;;;;;;;29.40;20.40;;;8.90;99.90;;;;;;5006477;28;20424;-78
2022/12/22 11:22:53;;;;;;;41.57;29.00;;;8.80;99.90;;;;;;5005463;28;20547;-79
2022/12/22 11:25:36;;;;;;;40.37;26.00;;;8.80;99.90;;;;;;5002035;28;20525;-78
2022/12/22 11:28:26;;;;;;;38.50;25.30;;;8.80;99.90;;;;;;5004628;28;20429;-78
2022/12/22 11:31:11;;;;;;;36.07;25.60;;;8.70;99.90;;;;;;5003948;28;20440;-79
2022/12/22 11:33:51;;;;;;;36.60;26.07;;;8.70;99.90;;;;;;5005782;28;20439;-77
2022/12/22 11:36:29;;;;;;;35.53;25.70;;;8.70;99.90;;;;;;5004028;28;20479;-78
2022/12/22 11:39:05;;;;;;;38.17;25.53;;;8.60;99.90;;;;;;5003990;28;20468;-78
2022/12/22 11:41:50;;;;;;;40.73;26.00;;;8.60;99.90;;;;;;5004962;28;20770;-78
2022/12/22 11:44:36;;;;;;;41.93;28.57;;;8.60;99.90;;;;;;5003902;28;20483;-78
2022/12/22 11:47:16;;;;;;;36.17;26.90;;;8.60;99.90;;;;;;5005653;28;20444;-79
2022/12/22 11:50:12;;;;;;;37.77;29.37;;;8.50;99.90;;;;;;5006004;28;20462;-79
2022/12/22 11:53:14;;;;;;;36.30;26.57;;;8.60;99.90;;;;;;5009851;28;20436;-78
2022/12/22 11:55:47;;;;;;;32.40;25.73;;;8.60;99.90;;;;;;5006642;28;20482;-78
2022/12/22 11:58:30;;;;;;;33.87;25.27;;;8.60;99.90;;;;;;5004815;28;20518;-79
2022/12/22 12:01:13;;;;;;;30.07;23.20;;;8.60;99.90;;;;;;4995055;28;20491;-78
2022/12/22 12:04:20;;;;;;;38.33;24.60;;;8.60;99.90;;;;;;4995808;28;20449;-79
2022/12/22 12:07:17;;;;;;;34.87;25.10;;;8.60;99.90;;;;;;4997299;28;20424;-79
2022/12/22 12:10:01;;;;;;;29.50;22.10;;;8.60;99.90;;;;;;4997927;28;20448;-79
2022/12/22 12:12:42;;;;;;;31.37;23.03;;;8.60;99.90;;;;;;4999805;28;20416;-78
2022/12/22 12:15:29;;;;;;;28.00;21.00;;;8.70;99.90;;;;;;4997426;28;20476;-79
2022/12/22 12:18:13;;;;;;;30.97;20.10;;;8.60;99.90;;;;;;4998951;28;20492;-78
2022/12/22 12:20:53;;;;;;;24.87;18.83;;;8.70;99.90;;;;;;4999326;28;20504;-77
2022/12/22 12:23:44;;;;;;;25.20;17.60;;;8.70;99.90;;;;;;4997022;28;20506;-78
2022/12/22 12:26:19;;;;;;;21.40;15.70;;;8.70;99.90;;;;;;4998055;28;20472;-78
2022/12/22 12:29:00;;;;;;;24.43;15.13;;;8.70;99.90;;;;;;4998511;28;20412;-77
2022/12/22 12:31:33;;;;;;;23.57;14.20;;;8.70;99.90;;;;;;4998372;28;20797;-78
2022/12/22 12:34:03;;;;;;;18.97;14.37;;;8.70;99.90;;;;;;4998335;28;20903;-76
2022/12/22 12:36:41;;;;;;;19.70;14.20;;;8.70;99.90;;;;;;4997885;28;20456;-76
2022/12/22 12:39:16;;;;;;;18.33;14.53;;;8.70;99.90;;;;;;4996323;28;20475;-76
2022/12/22 12:41:53;;;;;;;18.03;14.30;;;8.80;99.90;;;;;;4997862;28;20527;-78
2022/12/22 12:44:25;;;;;;;17.23;13.90;;;8.80;99.90;;;;;;4998508;28;20567;-77
2022/12/22 12:47:06;;;;;;;16.80;13.43;;;8.80;99.90;;;;;;4996279;28;20444;-78
2022/12/22 12:49:54;;;;;;;21.90;13.53;;;8.80;99.90;;;;;;4997653;28;20437;-78
2022/12/22 12:53:15;;;;;;;20.77;13.53;;;8.80;99.90;;;;;;4996725;28;20444;-77
2022/12/22 12:56:03;;;;;;;18.60;12.30;;;8.80;99.90;;;;;;4996849;28;20883;-78
2022/12/22 12:58:54;;;;;;;19.53;13.20;;;8.80;99.90;;;;;;4999430;28;20456;-80
2022/12/22 13:01:53;;;;;;;17.53;13.47;;;8.80;99.90;;;;;;4998566;28;20447;-79
2022/12/22 13:05:00;;;;;;;18.63;13.40;;;8.80;99.90;;;;;;4970846;28;20514;-78
2022/12/22 13:08:13;;;;;;;16.17;12.77;;;8.80;99.90;;;;;;4978397;28;20445;-77
2022/12/22 13:10:47;;;;;;;17.97;12.20;;;8.80;99.90;;;;;;4965414;28;20461;-79
2022/12/22 13:13:52;;;;;;;15.27;11.40;;;8.80;99.90;;;;;;4978849;28;20463;-79
2022/12/22 13:16:42;;;;;;;16.53;11.30;;;8.90;99.90;;;;;;4978568;28;20549;-78
2022/12/22 13:19:25;;;;;;;15.70;11.07;;;8.90;99.90;;;;;;4976205;28;20476;-79
2022/12/22 13:21:56;;;;;;;15.43;10.63;;;8.80;99.90;;;;;;4977789;28;20456;-78
2022/12/22 13:24:29;;;;;;;19.57;11.17;;;8.90;99.90;;;;;;4977765;28;20487;-78
2022/12/22 13:27:05;;;;;;;17.93;11.57;;;8.90;99.90;;;;;;4978006;28;20549;-78
2022/12/22 13:29:47;;;;;;;16.20;10.90;;;8.80;99.90;;;;;;4979024;28;20805;-78
2022/12/22 13:32:23;;;;;;;17.57;12.17;;;8.90;99.90;;;;;;4977486;28;20474;-79
2022/12/22 13:35:03;;;;;;;17.83;11.63;;;8.90;99.90;;;;;;4977564;28;20477;-78
2022/12/22 13:37:53;;;;;;;16.43;12.27;;;9.00;99.90;;;;;;4979005;28;20479;-77
2022/12/22 13:40:23;;;;;;;15.93;10.57;;;9.00;99.90;;;;;;4977838;28;20541;-78
2022/12/22 13:42:54;;;;;;;18.17;11.57;;;9.00;99.90;;;;;;4976095;28;20442;-76
2022/12/22 13:45:33;;;;;;;15.77;10.40;;;9.00;99.90;;;;;;4977677;28;20465;-76
2022/12/22 13:48:05;;;;;;;15.07;9.67;;;9.00;99.90;;;;;;4981839;28;20480;-79
2022/12/22 13:50:37;;;;;;;17.33;10.50;;;9.00;99.90;;;;;;4979118;28;20462;-79
2022/12/22 13:53:08;;;;;;;17.53;10.90;;;8.90;99.90;;;;;;4977854;28;20504;-78
2022/12/22 13:55:38;;;;;;;12.93;9.70;;;9.00;99.90;;;;;;4985893;28;20483;-78
2022/12/22 13:58:14;;;;;;;16.60;11.20;;;8.90;99.90;;;;;;4997710;28;20519;-79
2022/12/22 14:00:44;;;;;;;18.23;11.60;;;9.00;99.90;;;;;;4999496;28;20487;-80
2022/12/22 14:03:16;;;;;;;19.57;11.13;;;8.90;99.90;;;;;;5001277;28;20436;-79
2022/12/22 14:06:19;;;;;;;16.07;11.73;;;8.80;99.90;;;;;;4999795;28;20989;-78
2022/12/22 14:08:47;;;;;;;16.27;10.97;;;8.80;99.90;;;;;;5000656;28;20862;-79
2022/12/22 14:11:16;;;;;;;15.17;10.87;;;8.80;99.90;;;;;;4998820;28;20495;-79
2022/12/22 14:13:44;;;;;;;14.20;9.90;;;8.80;99.90;;;;;;4997417;28;20460;-79
2022/12/22 14:16:14;;;;;;;18.07;10.70;;;8.70;99.90;;;;;;5000798;28;20460;-79
2022/12/22 14:18:43;;;;;;;14.63;9.77;;;8.70;99.90;;;;;;4998791;28;20465;-78
2022/12/22 14:21:12;;;;;;;14.70;9.40;;;8.70;99.90;;;;;;5000160;28;20452;-78
2022/12/22 14:23:42;;;;;;;15.80;10.83;;;8.60;99.90;;;;;;5002316;28;20453;-78
2022/12/22 14:26:17;;;;;;;14.80;10.93;;;8.60;99.90;;;;;;5000330;28;20478;-79
2022/12/22 14:28:49;;;;;;;16.83;11.13;;;8.50;99.90;;;;;;4997016;28;20448;-79
2022/12/22 14:31:19;;;;;;;13.93;10.30;;;8.50;99.90;;;;;;4998087;28;20517;-79
2022/12/22 14:33:53;;;;;;;17.60;10.20;;;8.50;99.90;;;;;;4999335;28;20454;-79
2022/12/22 14:36:23;;;;;;;18.20;11.47;;;8.40;99.90;;;;;;4999992;28;20491;-78
2022/12/22 14:38:53;;;;;;;14.30;10.23;;;8.40;99.90;;;;;;4998027;28;20471;-78
2022/12/22 14:41:43;;;;;;;18.90;10.03;;;8.40;99.90;;;;;;4996938;28;20930;-78
2022/12/22 14:44:14;;;;;;;14.13;10.00;;;8.30;99.90;;;;;;4999108;28;20444;-78
2022/12/22 14:46:45;;;;;;;14.83;9.73;;;8.30;99.90;;;;;;4995882;28;20476;-77
2022/12/22 14:49:16;;;;;;;14.60;10.10;;;8.20;99.90;;;;;;4998710;28;20432;-78
2022/12/22 14:51:54;;;;;;;16.33;9.90;;;8.20;99.90;;;;;;4999257;28;20922;-78
2022/12/22 14:54:28;;;;;;;16.50;10.40;;;8.20;99.90;;;;;;5000640;28;20503;-76
2022/12/22 14:57:02;;;;;;;17.87;10.53;;;8.20;99.90;;;;;;4993650;28;20449;-77
2022/12/22 14:59:31;;;;;;;13.10;9.50;;;8.10;99.90;;;;;;4995633;28;20460;-78
2022/12/22 15:02:03;;;;;;;20.63;10.27;;;8.10;99.90;;;;;;4998123;28;20448;-78
2022/12/22 15:04:31;;;;;;;18.70;9.90;;;8.10;99.90;;;;;;4998359;28;20826;-78
2022/12/22 15:07:15;;;;;;;15.87;10.70;;;8.10;99.90;;;;;;4997529;28;20483;-78
2022/12/22 15:10:04;;;;;;;17.87;10.57;;;8.10;99.90;;;;;;4999071;28;20429;-76
2022/12/22 15:12:49;;;;;;;17.20;11.13;;;8.00;99.90;;;;;;4997361;28;20522;-79
2022/12/22 15:15:19;;;;;;;18.33;10.90;;;8.00;99.90;;;;;;4997241;28;20480;-78
2022/12/22 15:17:50;;;;;;;15.20;10.87;;;8.00;99.90;;;;;;4997242;28;20449;-78
2022/12/22 15:20:22;;;;;;;15.90;10.40;;;7.90;99.90;;;;;;4998597;28;20502;-78
2022/12/22 15:22:50;;;;;;;15.93;11.07;;;7.90;99.90;;;;;;4998424;28;20433;-78
2022/12/22 15:25:22;;;;;;;17.80;11.73;;;7.90;99.90;;;;;;4998211;28;20542;-78
2022/12/22 15:27:50;;;;;;;19.90;11.97;;;7.90;99.90;;;;;;4996957;28;20447;-78
2022/12/22 15:30:21;;;;;;;16.90;12.07;;;7.90;99.90;;;;;;4999661;28;20575;-78
2022/12/22 15:32:56;;;;;;;18.63;11.20;;;7.90;99.90;;;;;;5000061;28;20428;-78
2022/12/22 15:35:29;;;;;;;18.03;12.67;;;7.90;99.90;;;;;;4997904;28;20516;-78
2022/12/22 15:37:57;;;;;;;19.40;12.27;;;7.90;99.90;;;;;;4997408;28;20460;-78
2022/12/22 15:40:26;;;;;;;17.93;11.40;;;7.90;99.90;;;;;;4997763;28;20471;-76
2022/12/22 15:42:55;;;;;;;17.70;11.50;;;7.90;99.90;;;;;;4994151;28;20486;-77
2022/12/22 15:45:23;;;;;;;17.43;11.60;;;7.90;99.90;;;;;;4995142;28;20465;-77
2022/12/22 15:47:53;;;;;;;18.20;12.10;;;7.80;99.90;;;;;;4994660;28;20447;-77
2022/12/22 15:50:25;;;;;;;15.47;11.53;;;7.90;99.90;;;;;;4992981;28;20455;-77
2022/12/22 15:52:56;;;;;;;17.70;11.70;;;7.90;99.90;;;;;;4996006;28;20471;-77
2022/12/22 15:55:25;;;;;;;19.40;12.37;;;7.90;99.90;;;;;;4995669;28;20486;-78
2022/12/22 15:57:56;;;;;;;16.27;11.53;;;7.80;99.90;;;;;;4998883;28;20538;-78
2022/12/22 16:00:25;;;;;;;17.40;11.97;;;7.90;99.90;;;;;;4996303;28;20467;-76
2022/12/22 16:02:53;;;;;;;16.77;11.60;;;7.90;99.90;;;;;;4997814;28;20476;-78
2022/12/22 16:05:23;;;;;;;19.87;13.47;;;7.90;99.90;;;;;;4999101;28;20896;-78
2022/12/22 16:07:51;;;;;;;18.40;12.97;;;7.90;99.90;;;;;;4999321;28;20463;-78
2022/12/22 16:10:24;;;;;;;16.73;12.30;;;7.90;99.90;;;;;;4998267;28;20456;-78
2022/12/22 16:13:00;;;;;;;22.17;12.67;;;7.80;99.90;;;;;;4997751;28;20444;-78
2022/12/22 16:15:30;;;;;;;18.50;11.57;;;7.90;99.90;;;;;;4999690;28;20462;-78
2022/12/22 16:17:59;;;;;;;17.53;12.67;;;7.90;99.90;;;;;;4999235;28;20954;-78
2022/12/22 16:20:32;;;;;;;19.43;13.37;;;7.80;99.90;;;;;;4997744;28;20468;-77
2022/12/22 16:23:07;;;;;;;15.30;11.70;;;7.90;99.90;;;;;;4998348;28;20441;-78
2022/12/22 16:25:38;;;;;;;25.00;13.30;;;7.80;99.90;;;;;;4998325;28;20534;-78
2022/12/22 16:28:06;;;;;;;17.67;13.03;;;7.90;99.90;;;;;;4999313;28;20909;-78
2022/12/22 16:30:35;;;;;;;16.53;11.30;;;7.90;99.90;;;;;;5000522;28;20451;-78
2022/12/22 16:33:03;;;;;;;23.17;13.77;;;7.90;99.90;;;;;;5000737;28;20502;-78
2022/12/22 16:35:32;;;;;;;21.17;12.97;;;7.90;99.90;;;;;;4997257;28;20476;-78
2022/12/22 16:38:00;;;;;;;17.87;12.53;;;7.90;99.90;;;;;;4996645;28;20448;-78
2022/12/22 16:40:31;;;;;;;22.87;13.60;;;7.90;99.90;;;;;;4997641;28;20472;-78
2022/12/22 16:43:01;;;;;;;18.33;12.57;;;7.90;99.90;;;;;;4996951;28;20436;-78
2022/12/22 16:45:48;;;;;;;20.00;12.83;;;7.90;99.90;;;;;;4998681;28;20502;-78
2022/12/22 16:48:21;;;;;;;19.67;13.87;;;7.90;99.90;;;;;;4996974;28;21021;-78
2022/12/22 16:50:51;;;;;;;19.43;13.83;;;7.90;99.90;;;;;;4997526;28;20454;-78
2022/12/22 16:53:19;;;;;;;17.87;12.60;;;7.90;99.90;;;;;;4999044;28;20454;-78